Create Tblcommutelog Verified Points Advance Search
| # | Trip ID | Id Commuter | Trip Date | Trip Num | Current Lat | Current Lng | Delta Distance | Current Time | Activity | Activity Confidence | Current Speed | |
|---|---|---|---|---|---|---|---|---|---|---|---|---|
| 73761 | 260203_786132_16659785_1559 | 786132 | (not set) | (not set) | 38.818130395712 | -76.944478952073 | 2.6202 | 2026-02-03 16:07:35 | in_vehicle | 100 | 13.268125206756 | |
| 73762 | 260203_781438_16649118_1606 | 781438 | (not set) | (not set) | 38.8973754 | -77.0433672 | 0.0302 | 2026-02-03 16:07:56 | walking | 100 | 0.59903260704355 | |
| 73763 | 260203_788956_16657708_1606 | 788956 | (not set) | (not set) | 38.797358175666 | -77.010562174348 | 1.5544 | 2026-02-03 16:08:14 | in_vehicle | 100 | 9.1061897055799 | |
| 73764 | 260203_780828_16648505_1600 | 780828 | (not set) | (not set) | 38.900863757444 | -77.050411505027 | 0.6997 | 2026-02-03 16:08:32 | unknown | 100 | -0.44703925898772 | |
| 73765 | 260203_784692_16658002_1601 | 784692 | (not set) | (not set) | 38.809968431357 | -76.965373820199 | 3.5195 | 2026-02-03 16:08:48 | in_vehicle | 100 | 13.080368717981 | |
| 73766 | 260203_696035_16551372_1609 | 696035 | (not set) | (not set) | 38.896719769858 | -77.026633460116 | 0 | 2026-02-03 16:09:05 | on_foot | 100 | -0.44703925898772 | |
| 73767 | 260203_791405_16660550_1609 | 791405 | (not set) | (not set) | 38.895696579345 | -77.071322705654 | 0 | 2026-02-03 16:09:14 | on_foot | 100 | 0.48727279229662 | |
| 73768 | 260203_787783_16660131_1609 | 787783 | (not set) | (not set) | 38.898605437049 | -77.043315531822 | 0 | 2026-02-03 16:09:36 | unknown | 100 | 0.37104258495981 | |
| 73769 | 260203_791123_16660230_1606 | 791123 | (not set) | (not set) | 38.805040756184 | -77.05614298757 | 0.1847 | 2026-02-03 16:09:50 | on_foot | 100 | -0.44703925898772 | |
| 73770 | 260203_786132_16659785_1559 | 786132 | (not set) | (not set) | 38.806182971732 | -76.991558336549 | 5.3368 | 2026-02-03 16:10:02 | in_vehicle | 100 | 15.114397346375 | |
| 73771 | 260203_788559_16657212_1555 | 788559 | (not set) | (not set) | 38.996290338983 | -77.011579190766 | 2.462 | 2026-02-03 16:10:18 | in_vehicle | 100 | 5.2974152190045 | |
| 73772 | 260203_789715_16658618_1603 | 789715 | (not set) | (not set) | 38.879951131532 | -77.024305592698 | 1.0906 | 2026-02-03 16:10:29 | in_vehicle | 100 | 3.8534784124742 | |
| 73773 | 260203_785331_16653457_1610 | 785331 | (not set) | (not set) | 38.90034405236 | -77.043632967321 | 0 | 2026-02-03 16:10:38 | unknown | 100 | 0.013411177769632 | |
| 73774 | 260203_784692_16658002_1601 | 784692 | (not set) | (not set) | 38.79896195313 | -77.007551412457 | 5.9624 | 2026-02-03 16:10:50 | in_vehicle | 100 | 13.558700725098 | |
| 73775 | 260203_789715_16658618_1603 | 789715 | (not set) | (not set) | 38.882790059906 | -77.028481125289 | 1.3906 | 2026-02-03 16:11:07 | in_vehicle | 100 | 3.1426859906837 | |
| 73776 | 260203_788077_16656633_1601 | 788077 | (not set) | (not set) | 38.794801747958 | -77.017192823984 | 6.5366 | 2026-02-03 16:11:26 | in_vehicle | 100 | 11.444205030086 | |
| 73777 | 260203_788077_16656633_1601 | 788077 | (not set) | (not set) | 38.793993104018 | -77.020764259424 | 6.7373 | 2026-02-03 16:11:38 | in_vehicle | 100 | 12.324872370292 | |
| 73778 | 260203_783344_16651073_1551 | 783344 | (not set) | (not set) | 38.88620938027 | -77.021553270103 | 3.504 | 2026-02-03 16:11:52 | in_vehicle | 100 | -0.44703925898772 | |
| 73779 | 260203_786132_16659785_1559 | 786132 | (not set) | (not set) | 38.792969896738 | -77.028342162283 | 7.5515 | 2026-02-03 16:12:04 | in_vehicle | 100 | 9.9689754754263 | |
| 73780 | 260203_780805_16656446_1518 | 780805 | (not set) | (not set) | 39.015567166667 | -77.042999666667 | 13.7765 | 2026-02-03 16:12:17 | still | 33 | 0 |